sensor_id;sensor_type;location;lat;lon;timestamp;P1;durP1;ratioP1;P2;durP2;ratioP2
15833;SDS011;8017;50.812;4.934;2022-12-07T00:01:43;26.37;;;20.27;;
15833;SDS011;8017;50.812;4.934;2022-12-07T00:04:45;26.17;;;21.00;;
15833;SDS011;8017;50.812;4.934;2022-12-07T00:07:50;27.60;;;20.13;;
15833;SDS011;8017;50.812;4.934;2022-12-07T00:10:52;30.17;;;20.03;;
15833;SDS011;8017;50.812;4.934;2022-12-07T00:13:55;24.97;;;20.43;;
15833;SDS011;8017;50.812;4.934;2022-12-07T00:16:58;27.23;;;20.80;;
15833;SDS011;8017;50.812;4.934;2022-12-07T00:20:01;28.63;;;20.50;;
15833;SDS011;8017;50.812;4.934;2022-12-07T00:23:04;29.73;;;20.27;;
15833;SDS011;8017;50.812;4.934;2022-12-07T00:26:06;28.30;;;20.60;;
15833;SDS011;8017;50.812;4.934;2022-12-07T00:29:12;32.30;;;22.10;;
15833;SDS011;8017;50.812;4.934;2022-12-07T00:32:17;24.83;;;20.83;;
15833;SDS011;8017;50.812;4.934;2022-12-07T00:35:18;29.17;;;21.93;;
15833;SDS011;8017;50.812;4.934;2022-12-07T00:38:22;34.40;;;21.37;;
15833;SDS011;8017;50.812;4.934;2022-12-07T00:41:24;32.17;;;22.43;;
15833;SDS011;8017;50.812;4.934;2022-12-07T00:44:27;32.17;;;22.47;;
15833;SDS011;8017;50.812;4.934;2022-12-07T00:47:29;35.90;;;23.33;;
15833;SDS011;8017;50.812;4.934;2022-12-07T00:50:31;29.20;;;23.13;;
15833;SDS011;8017;50.812;4.934;2022-12-07T00:53:34;31.50;;;23.47;;
15833;SDS011;8017;50.812;4.934;2022-12-07T00:56:37;32.67;;;23.47;;
15833;SDS011;8017;50.812;4.934;2022-12-07T00:59:39;31.47;;;22.60;;
15833;SDS011;8017;50.812;4.934;2022-12-07T01:02:41;31.53;;;23.37;;
15833;SDS011;8017;50.812;4.934;2022-12-07T01:05:48;27.43;;;22.50;;
15833;SDS011;8017;50.812;4.934;2022-12-07T01:08:53;32.13;;;23.03;;
15833;SDS011;8017;50.812;4.934;2022-12-07T01:11:55;29.53;;;23.03;;
15833;SDS011;8017;50.812;4.934;2022-12-07T01:14:57;31.33;;;23.37;;
15833;SDS011;8017;50.812;4.934;2022-12-07T01:17:59;31.90;;;23.50;;
15833;SDS011;8017;50.812;4.934;2022-12-07T01:21:02;28.67;;;23.23;;
15833;SDS011;8017;50.812;4.934;2022-12-07T01:24:09;32.50;;;22.97;;
15833;SDS011;8017;50.812;4.934;2022-12-07T01:27:12;27.50;;;22.67;;
15833;SDS011;8017;50.812;4.934;2022-12-07T01:30:13;30.23;;;23.27;;
15833;SDS011;8017;50.812;4.934;2022-12-07T01:33:15;32.30;;;24.00;;
15833;SDS011;8017;50.812;4.934;2022-12-07T01:36:18;30.63;;;23.50;;
15833;SDS011;8017;50.812;4.934;2022-12-07T01:39:22;28.90;;;23.07;;
15833;SDS011;8017;50.812;4.934;2022-12-07T01:42:25;30.67;;;24.13;;
15833;SDS011;8017;50.812;4.934;2022-12-07T01:48:43;29.63;;;23.93;;
15833;SDS011;8017;50.812;4.934;2022-12-07T01:51:45;28.60;;;22.63;;
15833;SDS011;8017;50.812;4.934;2022-12-07T01:54:51;29.50;;;24.10;;
15833;SDS011;8017;50.812;4.934;2022-12-07T01:57:55;28.93;;;23.33;;
15833;SDS011;8017;50.812;4.934;2022-12-07T02:00:58;31.10;;;24.30;;
15833;SDS011;8017;50.812;4.934;2022-12-07T02:04:00;28.63;;;23.47;;
15833;SDS011;8017;50.812;4.934;2022-12-07T02:07:02;30.57;;;23.53;;
15833;SDS011;8017;50.812;4.934;2022-12-07T02:10:14;33.83;;;25.03;;
15833;SDS011;8017;50.812;4.934;2022-12-07T02:13:19;28.70;;;23.73;;
15833;SDS011;8017;50.812;4.934;2022-12-07T02:16:28;30.40;;;24.40;;
15833;SDS011;8017;50.812;4.934;2022-12-07T02:23:39;31.10;;;24.43;;
15833;SDS011;8017;50.812;4.934;2022-12-07T02:30:22;33.53;;;25.50;;
15833;SDS011;8017;50.812;4.934;2022-12-07T02:33:31;31.37;;;25.00;;
15833;SDS011;8017;50.812;4.934;2022-12-07T02:36:38;35.10;;;25.77;;
15833;SDS011;8017;50.812;4.934;2022-12-07T02:39:44;32.27;;;24.87;;
15833;SDS011;8017;50.812;4.934;2022-12-07T02:42:53;32.27;;;26.87;;
15833;SDS011;8017;50.812;4.934;2022-12-07T02:46:01;32.60;;;25.60;;
15833;SDS011;8017;50.812;4.934;2022-12-07T02:49:06;34.93;;;26.40;;
15833;SDS011;8017;50.812;4.934;2022-12-07T02:52:10;35.10;;;27.47;;
15833;SDS011;8017;50.812;4.934;2022-12-07T02:55:12;36.40;;;27.40;;
15833;SDS011;8017;50.812;4.934;2022-12-07T02:58:22;38.63;;;29.07;;
15833;SDS011;8017;50.812;4.934;2022-12-07T03:01:37;42.63;;;29.80;;
15833;SDS011;8017;50.812;4.934;2022-12-07T03:04:49;35.83;;;27.67;;
15833;SDS011;8017;50.812;4.934;2022-12-07T03:07:59;36.43;;;29.13;;
15833;SDS011;8017;50.812;4.934;2022-12-07T03:11:06;40.03;;;29.33;;
15833;SDS011;8017;50.812;4.934;2022-12-07T03:14:12;41.93;;;29.50;;
15833;SDS011;8017;50.812;4.934;2022-12-07T03:17:20;38.97;;;28.33;;
15833;SDS011;8017;50.812;4.934;2022-12-07T03:20:26;39.53;;;29.37;;
15833;SDS011;8017;50.812;4.934;2022-12-07T03:23:30;38.47;;;29.83;;
15833;SDS011;8017;50.812;4.934;2022-12-07T03:26:35;38.37;;;29.43;;
15833;SDS011;8017;50.812;4.934;2022-12-07T03:29:43;38.60;;;28.97;;
15833;SDS011;8017;50.812;4.934;2022-12-07T03:32:50;47.03;;;32.20;;
15833;SDS011;8017;50.812;4.934;2022-12-07T03:36:00;46.67;;;32.13;;
15833;SDS011;8017;50.812;4.934;2022-12-07T03:39:08;39.27;;;28.67;;
15833;SDS011;8017;50.812;4.934;2022-12-07T03:42:18;43.07;;;29.67;;
15833;SDS011;8017;50.812;4.934;2022-12-07T03:45:20;38.50;;;29.97;;
15833;SDS011;8017;50.812;4.934;2022-12-07T03:48:32;40.60;;;30.13;;
15833;SDS011;8017;50.812;4.934;2022-12-07T03:51:39;44.50;;;30.83;;
15833;SDS011;8017;50.812;4.934;2022-12-07T03:54:47;37.97;;;29.03;;
15833;SDS011;8017;50.812;4.934;2022-12-07T03:57:57;38.17;;;28.57;;
15833;SDS011;8017;50.812;4.934;2022-12-07T04:01:01;42.30;;;29.50;;
15833;SDS011;8017;50.812;4.934;2022-12-07T04:04:05;39.80;;;29.57;;
15833;SDS011;8017;50.812;4.934;2022-12-07T04:07:07;43.00;;;29.83;;
15833;SDS011;8017;50.812;4.934;2022-12-07T04:10:09;37.83;;;29.27;;
15833;SDS011;8017;50.812;4.934;2022-12-07T04:13:11;40.83;;;29.70;;
15833;SDS011;8017;50.812;4.934;2022-12-07T04:16:13;39.57;;;29.30;;
15833;SDS011;8017;50.812;4.934;2022-12-07T04:19:16;37.87;;;28.87;;
15833;SDS011;8017;50.812;4.934;2022-12-07T04:22:20;40.17;;;27.57;;
15833;SDS011;8017;50.812;4.934;2022-12-07T04:25:22;39.73;;;28.33;;
15833;SDS011;8017;50.812;4.934;2022-12-07T04:28:24;33.10;;;26.20;;
15833;SDS011;8017;50.812;4.934;2022-12-07T04:31:26;31.50;;;25.23;;
15833;SDS011;8017;50.812;4.934;2022-12-07T04:34:30;33.87;;;25.67;;
15833;SDS011;8017;50.812;4.934;2022-12-07T04:37:32;42.80;;;27.57;;
15833;SDS011;8017;50.812;4.934;2022-12-07T04:40:34;38.17;;;24.87;;
15833;SDS011;8017;50.812;4.934;2022-12-07T04:43:36;34.60;;;24.70;;
15833;SDS011;8017;50.812;4.934;2022-12-07T04:46:38;31.60;;;24.47;;
15833;SDS011;8017;50.812;4.934;2022-12-07T04:49:41;34.07;;;24.60;;
15833;SDS011;8017;50.812;4.934;2022-12-07T04:52:43;33.80;;;25.50;;
15833;SDS011;8017;50.812;4.934;2022-12-07T04:55:45;36.67;;;26.43;;
15833;SDS011;8017;50.812;4.934;2022-12-07T04:58:47;37.63;;;28.33;;
15833;SDS011;8017;50.812;4.934;2022-12-07T05:01:50;39.50;;;28.37;;
15833;SDS011;8017;50.812;4.934;2022-12-07T05:04:53;36.80;;;28.40;;
15833;SDS011;8017;50.812;4.934;2022-12-07T05:07:55;37.40;;;28.23;;
15833;SDS011;8017;50.812;4.934;2022-12-07T05:10:57;39.03;;;29.77;;
15833;SDS011;8017;50.812;4.934;2022-12-07T05:13:59;43.40;;;30.07;;
15833;SDS011;8017;50.812;4.934;2022-12-07T05:17:01;42.73;;;29.70;;
15833;SDS011;8017;50.812;4.934;2022-12-07T05:20:06;40.73;;;29.77;;
15833;SDS011;8017;50.812;4.934;2022-12-07T05:23:08;40.80;;;30.00;;
15833;SDS011;8017;50.812;4.934;2022-12-07T05:26:11;42.20;;;29.70;;
15833;SDS011;8017;50.812;4.934;2022-12-07T05:29:13;37.90;;;29.97;;
15833;SDS011;8017;50.812;4.934;2022-12-07T05:32:16;40.47;;;30.20;;
15833;SDS011;8017;50.812;4.934;2022-12-07T05:35:20;38.67;;;30.00;;
15833;SDS011;8017;50.812;4.934;2022-12-07T05:38:21;40.40;;;29.60;;
15833;SDS011;8017;50.812;4.934;2022-12-07T05:41:25;43.60;;;30.27;;
15833;SDS011;8017;50.812;4.934;2022-12-07T05:44:44;41.83;;;30.53;;
15833;SDS011;8017;50.812;4.934;2022-12-07T05:47:47;44.30;;;31.03;;
15833;SDS011;8017;50.812;4.934;2022-12-07T05:50:50;46.27;;;31.77;;
15833;SDS011;8017;50.812;4.934;2022-12-07T05:53:53;45.80;;;30.73;;
15833;SDS011;8017;50.812;4.934;2022-12-07T05:56:55;39.07;;;30.40;;
15833;SDS011;8017;50.812;4.934;2022-12-07T05:59:57;41.80;;;30.33;;
15833;SDS011;8017;50.812;4.934;2022-12-07T06:02:59;39.53;;;28.60;;
15833;SDS011;8017;50.812;4.934;2022-12-07T06:06:02;41.43;;;29.00;;
15833;SDS011;8017;50.812;4.934;2022-12-07T06:09:04;37.13;;;28.50;;
15833;SDS011;8017;50.812;4.934;2022-12-07T06:12:08;40.37;;;28.17;;
15833;SDS011;8017;50.812;4.934;2022-12-07T06:15:29;37.17;;;27.50;;
15833;SDS011;8017;50.812;4.934;2022-12-07T06:18:30;39.13;;;29.77;;
15833;SDS011;8017;50.812;4.934;2022-12-07T06:21:34;35.27;;;27.67;;
15833;SDS011;8017;50.812;4.934;2022-12-07T06:24:36;34.27;;;26.97;;
15833;SDS011;8017;50.812;4.934;2022-12-07T06:27:38;37.27;;;28.10;;
15833;SDS011;8017;50.812;4.934;2022-12-07T06:30:40;36.00;;;27.60;;
15833;SDS011;8017;50.812;4.934;2022-12-07T06:33:42;37.33;;;27.43;;
15833;SDS011;8017;50.812;4.934;2022-12-07T06:36:45;33.17;;;27.23;;
15833;SDS011;8017;50.812;4.934;2022-12-07T06:39:51;36.87;;;27.63;;
15833;SDS011;8017;50.812;4.934;2022-12-07T06:42:52;33.60;;;27.30;;
15833;SDS011;8017;50.812;4.934;2022-12-07T06:45:54;37.10;;;26.87;;
15833;SDS011;8017;50.812;4.934;2022-12-07T06:48:56;35.97;;;26.97;;
15833;SDS011;8017;50.812;4.934;2022-12-07T06:52:00;32.90;;;25.23;;
15833;SDS011;8017;50.812;4.934;2022-12-07T06:55:02;33.23;;;26.23;;
15833;SDS011;8017;50.812;4.934;2022-12-07T06:58:04;32.33;;;25.13;;
15833;SDS011;8017;50.812;4.934;2022-12-07T07:01:08;35.33;;;26.13;;
15833;SDS011;8017;50.812;4.934;2022-12-07T07:04:11;33.53;;;26.17;;
15833;SDS011;8017;50.812;4.934;2022-12-07T07:07:14;35.67;;;27.00;;
15833;SDS011;8017;50.812;4.934;2022-12-07T07:10:16;31.40;;;25.90;;
15833;SDS011;8017;50.812;4.934;2022-12-07T07:13:18;33.00;;;25.90;;
15833;SDS011;8017;50.812;4.934;2022-12-07T07:16:20;36.33;;;25.37;;
15833;SDS011;8017;50.812;4.934;2022-12-07T07:19:22;29.90;;;25.93;;
15833;SDS011;8017;50.812;4.934;2022-12-07T07:22:25;35.10;;;27.57;;
15833;SDS011;8017;50.812;4.934;2022-12-07T07:25:27;33.00;;;26.10;;
15833;SDS011;8017;50.812;4.934;2022-12-07T07:28:30;44.23;;;28.37;;
15833;SDS011;8017;50.812;4.934;2022-12-07T07:31:31;32.20;;;26.70;;
15833;SDS011;8017;50.812;4.934;2022-12-07T07:34:35;32.90;;;28.00;;
15833;SDS011;8017;50.812;4.934;2022-12-07T07:37:38;33.53;;;27.77;;
15833;SDS011;8017;50.812;4.934;2022-12-07T07:40:40;32.50;;;26.63;;
15833;SDS011;8017;50.812;4.934;2022-12-07T07:43:42;32.73;;;26.60;;
15833;SDS011;8017;50.812;4.934;2022-12-07T07:46:44;37.60;;;28.93;;
15833;SDS011;8017;50.812;4.934;2022-12-07T07:49:46;30.77;;;24.10;;
15833;SDS011;8017;50.812;4.934;2022-12-07T07:52:49;32.57;;;24.70;;
15833;SDS011;8017;50.812;4.934;2022-12-07T07:55:52;32.33;;;26.20;;
15833;SDS011;8017;50.812;4.934;2022-12-07T07:58:54;32.60;;;26.40;;
15833;SDS011;8017;50.812;4.934;2022-12-07T08:01:56;33.13;;;25.80;;
15833;SDS011;8017;50.812;4.934;2022-12-07T08:04:58;31.73;;;25.80;;
15833;SDS011;8017;50.812;4.934;2022-12-07T08:08:02;30.33;;;25.43;;
15833;SDS011;8017;50.812;4.934;2022-12-07T08:11:04;32.23;;;24.70;;
15833;SDS011;8017;50.812;4.934;2022-12-07T08:14:06;34.13;;;26.77;;
15833;SDS011;8017;50.812;4.934;2022-12-07T08:17:08;30.20;;;23.93;;
15833;SDS011;8017;50.812;4.934;2022-12-07T08:20:10;30.13;;;23.57;;
15833;SDS011;8017;50.812;4.934;2022-12-07T08:23:13;32.83;;;24.53;;
15833;SDS011;8017;50.812;4.934;2022-12-07T08:26:16;32.27;;;24.70;;
15833;SDS011;8017;50.812;4.934;2022-12-07T08:29:18;33.00;;;25.47;;
15833;SDS011;8017;50.812;4.934;2022-12-07T08:32:20;32.90;;;23.73;;
15833;SDS011;8017;50.812;4.934;2022-12-07T08:35:22;34.93;;;27.30;;
15833;SDS011;8017;50.812;4.934;2022-12-07T08:38:26;33.03;;;24.97;;
15833;SDS011;8017;50.812;4.934;2022-12-07T08:41:27;33.23;;;25.27;;
15833;SDS011;8017;50.812;4.934;2022-12-07T08:44:29;35.07;;;26.27;;
15833;SDS011;8017;50.812;4.934;2022-12-07T08:47:31;35.63;;;27.33;;
15833;SDS011;8017;50.812;4.934;2022-12-07T08:50:34;33.43;;;26.63;;
15833;SDS011;8017;50.812;4.934;2022-12-07T08:53:39;36.23;;;26.57;;
15833;SDS011;8017;50.812;4.934;2022-12-07T08:56:43;34.57;;;25.93;;
15833;SDS011;8017;50.812;4.934;2022-12-07T08:59:46;31.70;;;27.03;;
15833;SDS011;8017;50.812;4.934;2022-12-07T09:02:48;31.17;;;24.53;;
15833;SDS011;8017;50.812;4.934;2022-12-07T09:05:50;30.77;;;24.53;;
15833;SDS011;8017;50.812;4.934;2022-12-07T09:08:56;29.90;;;22.87;;
15833;SDS011;8017;50.812;4.934;2022-12-07T09:12:01;32.07;;;24.30;;
15833;SDS011;8017;50.812;4.934;2022-12-07T09:15:04;28.93;;;23.03;;
15833;SDS011;8017;50.812;4.934;2022-12-07T09:18:06;31.13;;;23.93;;
15833;SDS011;8017;50.812;4.934;2022-12-07T09:21:08;27.73;;;22.33;;
15833;SDS011;8017;50.812;4.934;2022-12-07T09:24:12;27.37;;;20.10;;
15833;SDS011;8017;50.812;4.934;2022-12-07T09:27:14;23.30;;;19.03;;
15833;SDS011;8017;50.812;4.934;2022-12-07T09:30:17;23.43;;;18.57;;
15833;SDS011;8017;50.812;4.934;2022-12-07T09:33:19;27.37;;;19.60;;
15833;SDS011;8017;50.812;4.934;2022-12-07T09:36:21;26.07;;;19.70;;
15833;SDS011;8017;50.812;4.934;2022-12-07T09:39:25;21.53;;;17.87;;
15833;SDS011;8017;50.812;4.934;2022-12-07T09:42:27;24.90;;;17.97;;
15833;SDS011;8017;50.812;4.934;2022-12-07T09:45:32;24.10;;;18.20;;
15833;SDS011;8017;50.812;4.934;2022-12-07T09:48:37;23.97;;;18.67;;
15833;SDS011;8017;50.812;4.934;2022-12-07T09:51:40;21.60;;;17.03;;
15833;SDS011;8017;50.812;4.934;2022-12-07T09:54:45;20.13;;;16.77;;
15833;SDS011;8017;50.812;4.934;2022-12-07T09:57:48;22.53;;;15.83;;
15833;SDS011;8017;50.812;4.934;2022-12-07T10:00:52;21.60;;;15.37;;
15833;SDS011;8017;50.812;4.934;2022-12-07T10:03:59;16.00;;;13.83;;
15833;SDS011;8017;50.812;4.934;2022-12-07T10:07:09;18.50;;;12.73;;
15833;SDS011;8017;50.812;4.934;2022-12-07T10:10:15;18.70;;;12.43;;
15833;SDS011;8017;50.812;4.934;2022-12-07T10:13:21;16.60;;;12.10;;
15833;SDS011;8017;50.812;4.934;2022-12-07T10:16:32;16.47;;;10.93;;
15833;SDS011;8017;50.812;4.934;2022-12-07T10:19:39;21.10;;;11.47;;
15833;SDS011;8017;50.812;4.934;2022-12-07T10:22:53;14.47;;;9.77;;
15833;SDS011;8017;50.812;4.934;2022-12-07T10:25:58;14.80;;;10.10;;
15833;SDS011;8017;50.812;4.934;2022-12-07T10:29:00;17.77;;;8.90;;
15833;SDS011;8017;50.812;4.934;2022-12-07T10:32:26;17.43;;;9.07;;
15833;SDS011;8017;50.812;4.934;2022-12-07T10:35:32;21.27;;;9.50;;
15833;SDS011;8017;50.812;4.934;2022-12-07T10:38:44;14.40;;;8.40;;
15833;SDS011;8017;50.812;4.934;2022-12-07T10:41:55;18.70;;;8.93;;
15833;SDS011;8017;50.812;4.934;2022-12-07T10:45:07;10.07;;;7.57;;
15833;SDS011;8017;50.812;4.934;2022-12-07T10:48:11;16.50;;;7.73;;
15833;SDS011;8017;50.812;4.934;2022-12-07T10:51:19;12.97;;;7.33;;
15833;SDS011;8017;50.812;4.934;2022-12-07T10:54:30;18.27;;;7.13;;
15833;SDS011;8017;50.812;4.934;2022-12-07T10:57:49;11.53;;;7.13;;
15833;SDS011;8017;50.812;4.934;2022-12-07T11:01:04;10.10;;;6.90;;
15833;SDS011;8017;50.812;4.934;2022-12-07T11:04:24;12.47;;;7.70;;
15833;SDS011;8017;50.812;4.934;2022-12-07T11:07:36;13.30;;;8.20;;
15833;SDS011;8017;50.812;4.934;2022-12-07T11:10:44;12.67;;;7.77;;
15833;SDS011;8017;50.812;4.934;2022-12-07T11:13:55;10.07;;;7.43;;
15833;SDS011;8017;50.812;4.934;2022-12-07T11:17:05;10.63;;;6.90;;
15833;SDS011;8017;50.812;4.934;2022-12-07T11:20:15;12.67;;;7.33;;
15833;SDS011;8017;50.812;4.934;2022-12-07T11:23:31;10.70;;;7.20;;
15833;SDS011;8017;50.812;4.934;2022-12-07T11:26:57;10.67;;;7.77;;
15833;SDS011;8017;50.812;4.934;2022-12-07T11:30:14;13.30;;;6.80;;
15833;SDS011;8017;50.812;4.934;2022-12-07T11:33:22;18.30;;;6.37;;
15833;SDS011;8017;50.812;4.934;2022-12-07T11:36:32;12.10;;;6.30;;
15833;SDS011;8017;50.812;4.934;2022-12-07T11:39:40;15.37;;;6.77;;
15833;SDS011;8017;50.812;4.934;2022-12-07T11:42:49;11.47;;;6.47;;
15833;SDS011;8017;50.812;4.934;2022-12-07T11:45:58;10.43;;;6.40;;
15833;SDS011;8017;50.812;4.934;2022-12-07T11:49:10;7.93;;;5.37;;
15833;SDS011;8017;50.812;4.934;2022-12-07T11:52:18;11.23;;;5.63;;
15833;SDS011;8017;50.812;4.934;2022-12-07T11:55:26;8.23;;;5.03;;
15833;SDS011;8017;50.812;4.934;2022-12-07T11:58:35;10.00;;;5.43;;
15833;SDS011;8017;50.812;4.934;2022-12-07T12:01:47;8.90;;;5.40;;
15833;SDS011;8017;50.812;4.934;2022-12-07T12:04:56;14.17;;;5.57;;
15833;SDS011;8017;50.812;4.934;2022-12-07T12:08:04;9.27;;;5.27;;
15833;SDS011;8017;50.812;4.934;2022-12-07T12:11:19;8.50;;;5.40;;
15833;SDS011;8017;50.812;4.934;2022-12-07T12:14:39;7.03;;;4.73;;
15833;SDS011;8017;50.812;4.934;2022-12-07T12:21:17;14.53;;;5.80;;
15833;SDS011;8017;50.812;4.934;2022-12-07T12:24:24;9.80;;;5.80;;
15833;SDS011;8017;50.812;4.934;2022-12-07T12:27:29;8.40;;;4.70;;
15833;SDS011;8017;50.812;4.934;2022-12-07T12:30:34;6.90;;;5.13;;
15833;SDS011;8017;50.812;4.934;2022-12-07T12:33:42;15.13;;;5.53;;
15833;SDS011;8017;50.812;4.934;2022-12-07T12:36:46;9.97;;;4.50;;
15833;SDS011;8017;50.812;4.934;2022-12-07T12:46:52;7.73;;;4.60;;
15833;SDS011;8017;50.812;4.934;2022-12-07T12:50:16;7.10;;;4.23;;
15833;SDS011;8017;50.812;4.934;2022-12-07T12:53:24;14.80;;;5.20;;
15833;SDS011;8017;50.812;4.934;2022-12-07T12:56:31;11.63;;;5.90;;
15833;SDS011;8017;50.812;4.934;2022-12-07T12:59:40;8.40;;;5.27;;
15833;SDS011;8017;50.812;4.934;2022-12-07T13:02:47;10.70;;;5.70;;
15833;SDS011;8017;50.812;4.934;2022-12-07T13:09:21;9.17;;;5.50;;
15833;SDS011;8017;50.812;4.934;2022-12-07T13:12:25;10.00;;;6.20;;
15833;SDS011;8017;50.812;4.934;2022-12-07T13:15:31;11.23;;;5.40;;
15833;SDS011;8017;50.812;4.934;2022-12-07T13:18:35;9.97;;;5.73;;
15833;SDS011;8017;50.812;4.934;2022-12-07T13:21:42;11.00;;;5.67;;
15833;SDS011;8017;50.812;4.934;2022-12-07T13:24:44;8.93;;;5.83;;
15833;SDS011;8017;50.812;4.934;2022-12-07T13:27:50;8.27;;;6.13;;
15833;SDS011;8017;50.812;4.934;2022-12-07T13:31:00;9.90;;;5.60;;
15833;SDS011;8017;50.812;4.934;2022-12-07T13:34:28;10.67;;;6.27;;
15833;SDS011;8017;50.812;4.934;2022-12-07T13:37:33;12.60;;;5.53;;
15833;SDS011;8017;50.812;4.934;2022-12-07T13:40:35;7.57;;;4.70;;
15833;SDS011;8017;50.812;4.934;2022-12-07T13:43:48;9.90;;;4.60;;
15833;SDS011;8017;50.812;4.934;2022-12-07T13:47:00;6.07;;;4.63;;
15833;SDS011;8017;50.812;4.934;2022-12-07T13:50:21;10.53;;;5.10;;
15833;SDS011;8017;50.812;4.934;2022-12-07T13:53:25;14.33;;;7.50;;
15833;SDS011;8017;50.812;4.934;2022-12-07T13:56:31;9.37;;;5.10;;
15833;SDS011;8017;50.812;4.934;2022-12-07T13:59:35;12.07;;;5.80;;
15833;SDS011;8017;50.812;4.934;2022-12-07T14:02:53;8.57;;;5.50;;
15833;SDS011;8017;50.812;4.934;2022-12-07T14:06:03;8.20;;;4.90;;
15833;SDS011;8017;50.812;4.934;2022-12-07T14:09:16;7.97;;;5.17;;
15833;SDS011;8017;50.812;4.934;2022-12-07T14:12:20;8.37;;;5.50;;
15833;SDS011;8017;50.812;4.934;2022-12-07T14:15:23;9.47;;;5.83;;
15833;SDS011;8017;50.812;4.934;2022-12-07T14:18:28;9.73;;;7.20;;
15833;SDS011;8017;50.812;4.934;2022-12-07T14:21:32;9.00;;;4.90;;
15833;SDS011;8017;50.812;4.934;2022-12-07T14:24:42;8.33;;;5.80;;
15833;SDS011;8017;50.812;4.934;2022-12-07T14:27:52;9.13;;;6.93;;
15833;SDS011;8017;50.812;4.934;2022-12-07T14:30:57;8.03;;;4.70;;
15833;SDS011;8017;50.812;4.934;2022-12-07T14:33:59;9.90;;;4.73;;
15833;SDS011;8017;50.812;4.934;2022-12-07T14:37:01;3.73;;;2.23;;
15833;SDS011;8017;50.812;4.934;2022-12-07T14:40:05;2.60;;;2.37;;
15833;SDS011;8017;50.812;4.934;2022-12-07T14:43:10;3.90;;;2.43;;
15833;SDS011;8017;50.812;4.934;2022-12-07T14:46:13;4.37;;;2.53;;
15833;SDS011;8017;50.812;4.934;2022-12-07T14:49:16;3.77;;;2.80;;
15833;SDS011;8017;50.812;4.934;2022-12-07T14:52:19;4.23;;;3.60;;
15833;SDS011;8017;50.812;4.934;2022-12-07T14:55:26;5.17;;;3.73;;
15833;SDS011;8017;50.812;4.934;2022-12-07T14:58:28;9.53;;;4.70;;
15833;SDS011;8017;50.812;4.934;2022-12-07T15:01:30;9.53;;;5.10;;
15833;SDS011;8017;50.812;4.934;2022-12-07T15:04:32;8.17;;;5.00;;
15833;SDS011;8017;50.812;4.934;2022-12-07T15:07:34;7.47;;;5.00;;
15833;SDS011;8017;50.812;4.934;2022-12-07T15:10:38;7.57;;;4.80;;
15833;SDS011;8017;50.812;4.934;2022-12-07T15:13:40;7.73;;;5.10;;
15833;SDS011;8017;50.812;4.934;2022-12-07T15:16:59;7.80;;;4.57;;
15833;SDS011;8017;50.812;4.934;2022-12-07T15:20:01;9.63;;;6.00;;
15833;SDS011;8017;50.812;4.934;2022-12-07T15:23:04;8.60;;;5.33;;
15833;SDS011;8017;50.812;4.934;2022-12-07T15:26:09;8.07;;;4.40;;
15833;SDS011;8017;50.812;4.934;2022-12-07T15:29:11;4.83;;;3.20;;
15833;SDS011;8017;50.812;4.934;2022-12-07T15:32:14;5.10;;;3.00;;
15833;SDS011;8017;50.812;4.934;2022-12-07T15:35:16;4.23;;;2.70;;
15833;SDS011;8017;50.812;4.934;2022-12-07T15:38:18;4.83;;;2.47;;
15833;SDS011;8017;50.812;4.934;2022-12-07T15:41:21;6.10;;;3.10;;
15833;SDS011;8017;50.812;4.934;2022-12-07T15:44:24;6.73;;;4.37;;
15833;SDS011;8017;50.812;4.934;2022-12-07T15:47:44;8.83;;;6.13;;
15833;SDS011;8017;50.812;4.934;2022-12-07T15:50:45;9.73;;;6.47;;
15833;SDS011;8017;50.812;4.934;2022-12-07T15:53:47;8.20;;;6.40;;
15833;SDS011;8017;50.812;4.934;2022-12-07T15:56:51;9.17;;;6.90;;
15833;SDS011;8017;50.812;4.934;2022-12-07T15:59:53;9.80;;;6.40;;
15833;SDS011;8017;50.812;4.934;2022-12-07T16:02:55;9.97;;;6.77;;
15833;SDS011;8017;50.812;4.934;2022-12-07T16:05:57;11.40;;;7.07;;
15833;SDS011;8017;50.812;4.934;2022-12-07T16:08:59;8.17;;;6.83;;
15833;SDS011;8017;50.812;4.934;2022-12-07T16:12:02;13.20;;;7.70;;
15833;SDS011;8017;50.812;4.934;2022-12-07T16:15:04;9.00;;;7.17;;
15833;SDS011;8017;50.812;4.934;2022-12-07T16:18:07;7.53;;;6.73;;
15833;SDS011;8017;50.812;4.934;2022-12-07T16:21:09;7.97;;;6.63;;
15833;SDS011;8017;50.812;4.934;2022-12-07T16:24:11;9.03;;;6.70;;
15833;SDS011;8017;50.812;4.934;2022-12-07T16:27:16;7.87;;;6.40;;
15833;SDS011;8017;50.812;4.934;2022-12-07T16:30:18;9.23;;;6.57;;
15833;SDS011;8017;50.812;4.934;2022-12-07T16:33:20;6.70;;;6.10;;
15833;SDS011;8017;50.812;4.934;2022-12-07T16:36:22;8.90;;;6.70;;
15833;SDS011;8017;50.812;4.934;2022-12-07T16:39:27;9.57;;;6.80;;
15833;SDS011;8017;50.812;4.934;2022-12-07T16:42:31;7.70;;;6.43;;
15833;SDS011;8017;50.812;4.934;2022-12-07T16:45:35;9.87;;;7.63;;
15833;SDS011;8017;50.812;4.934;2022-12-07T16:48:38;10.63;;;7.73;;
15833;SDS011;8017;50.812;4.934;2022-12-07T16:51:41;9.37;;;7.87;;
15833;SDS011;8017;50.812;4.934;2022-12-07T16:54:44;8.43;;;7.40;;
15833;SDS011;8017;50.812;4.934;2022-12-07T16:57:48;9.03;;;8.13;;
15833;SDS011;8017;50.812;4.934;2022-12-07T17:00:50;12.23;;;8.57;;
15833;SDS011;8017;50.812;4.934;2022-12-07T17:03:52;13.90;;;10.05;;
15833;SDS011;8017;50.812;4.934;2022-12-07T17:06:53;13.13;;;10.43;;
15833;SDS011;8017;50.812;4.934;2022-12-07T17:09:55;14.53;;;10.53;;
15833;SDS011;8017;50.812;4.934;2022-12-07T17:12:59;10.60;;;9.40;;
15833;SDS011;8017;50.812;4.934;2022-12-07T17:16:01;11.53;;;8.87;;
15833;SDS011;8017;50.812;4.934;2022-12-07T17:19:04;10.67;;;8.00;;
15833;SDS011;8017;50.812;4.934;2022-12-07T17:22:06;12.90;;;8.70;;
15833;SDS011;8017;50.812;4.934;2022-12-07T17:25:08;11.93;;;8.80;;
15833;SDS011;8017;50.812;4.934;2022-12-07T17:28:12;11.00;;;9.33;;
15833;SDS011;8017;50.812;4.934;2022-12-07T17:31:15;11.03;;;8.87;;
15833;SDS011;8017;50.812;4.934;2022-12-07T17:34:18;12.77;;;9.50;;
15833;SDS011;8017;50.812;4.934;2022-12-07T17:37:20;12.17;;;9.70;;
15833;SDS011;8017;50.812;4.934;2022-12-07T17:40:22;11.60;;;8.50;;
15833;SDS011;8017;50.812;4.934;2022-12-07T17:43:26;15.70;;;10.03;;
15833;SDS011;8017;50.812;4.934;2022-12-07T17:46:27;12.10;;;8.87;;
15833;SDS011;8017;50.812;4.934;2022-12-07T17:49:29;14.57;;;9.30;;
15833;SDS011;8017;50.812;4.934;2022-12-07T17:52:31;13.20;;;8.90;;
15833;SDS011;8017;50.812;4.934;2022-12-07T17:55:52;13.03;;;8.87;;
15833;SDS011;8017;50.812;4.934;2022-12-07T17:58:55;14.50;;;8.53;;
15833;SDS011;8017;50.812;4.934;2022-12-07T18:01:57;14.33;;;8.50;;
15833;SDS011;8017;50.812;4.934;2022-12-07T18:04:59;12.87;;;8.77;;
15833;SDS011;8017;50.812;4.934;2022-12-07T18:08:01;14.80;;;9.57;;
15833;SDS011;8017;50.812;4.934;2022-12-07T18:11:03;14.67;;;9.27;;
15833;SDS011;8017;50.812;4.934;2022-12-07T18:14:07;13.27;;;8.77;;
15833;SDS011;8017;50.812;4.934;2022-12-07T18:17:09;13.37;;;9.47;;
15833;SDS011;8017;50.812;4.934;2022-12-07T18:20:11;13.80;;;9.83;;
15833;SDS011;8017;50.812;4.934;2022-12-07T18:23:13;12.80;;;9.93;;
15833;SDS011;8017;50.812;4.934;2022-12-07T18:26:16;14.27;;;10.27;;
15833;SDS011;8017;50.812;4.934;2022-12-07T18:29:24;15.60;;;10.30;;
15833;SDS011;8017;50.812;4.934;2022-12-07T18:32:26;15.33;;;10.40;;
15833;SDS011;8017;50.812;4.934;2022-12-07T18:35:29;15.67;;;11.40;;
15833;SDS011;8017;50.812;4.934;2022-12-07T18:38:33;20.27;;;12.77;;
15833;SDS011;8017;50.812;4.934;2022-12-07T18:41:35;19.67;;;13.00;;
15833;SDS011;8017;50.812;4.934;2022-12-07T18:44:40;18.23;;;13.93;;
15833;SDS011;8017;50.812;4.934;2022-12-07T18:47:41;15.90;;;13.20;;
15833;SDS011;8017;50.812;4.934;2022-12-07T18:50:44;18.87;;;13.87;;
15833;SDS011;8017;50.812;4.934;2022-12-07T18:53:47;20.23;;;14.70;;